Time;durP1;ratioP1;P1;durP2;ratioP2;P2;SDS_P1;SDS_P2;PMS_P1;PMS_P2;Temp;Humidity;BMP_temperature;BMP_pressure;BME280_temperature;BME280_humidity;BME280_pressure;Samples;Min_cycle;Max_cycle;Signal;HPM_P1;HPM_P2
2022/08/05 00:00:52;;;;;;;;;;;;;;;28.12;66.08;100755.16;5062143;28;1341;-40
2022/08/05 00:03:19;;;;;;;;;;;;;;;28.11;66.24;100753.47;5070683;28;1359;-41
2022/08/05 00:05:47;;;;;;;;;;;;;;;28.17;65.91;100752.88;5071972;28;913;-36
2022/08/05 00:08:34;;;;;;;;;;;;;;;28.07;65.98;100758.28;5050540;28;2278;-42
2022/08/05 00:11:02;;;;;;;;;;;;;;;28.31;64.98;100764.94;5053112;28;1066;-40
2022/08/05 00:13:33;;;;;;;;;;;;;;;28.00;65.43;100757.13;5071806;28;1299;-40
2022/08/05 00:16:06;;;;;;;;;;;;;;;27.91;65.64;100754.50;5072408;28;1122;-39
2022/08/05 00:18:34;;;;;;;;;;;;;;;28.23;64.65;100751.44;5073713;28;1224;-40
2022/08/05 00:21:03;;;;;;;;;;;;;;;28.14;64.54;100747.81;5073453;28;1088;-37
2022/08/05 00:23:32;;;;;;;;;;;;;;;27.91;64.32;100741.97;5073185;28;1665;-38
2022/08/05 00:26:19;;;;;;;;;;;;;;;27.85;64.73;100747.03;5073118;28;1045;-42
2022/08/05 00:28:45;;;;;;;;;;;;;;;28.06;63.57;100745.03;5073407;28;1906;-42
2022/08/05 00:31:14;;;;;;;;;;;;;;;27.90;63.71;100744.78;5073212;28;1017;-40
2022/08/05 00:33:41;;;;;;;;;;;;;;;28.00;62.49;100732.19;5073226;28;1329;-41
2022/08/05 00:36:28;;;;;;;;;;;;;;;28.21;61.32;100735.50;5072211;28;2167;-41
2022/08/05 00:39:14;;;;;;;;;;;;;;;28.28;58.82;100735.75;5066631;28;2120;-43
2022/08/05 00:41:44;;;;;;;;;;;;;;;28.22;57.67;100729.16;5072860;28;1296;-41
2022/08/05 00:44:20;;;;;;;;;;;;;;;28.17;57.01;100728.78;5072466;28;1104;-43
2022/08/05 00:46:48;;;;;;;;;;;;;;;28.08;57.72;100727.00;5072286;28;1291;-41
2022/08/05 00:49:27;;;;;;;;;;;;;;;28.23;57.29;100724.66;5072710;28;1917;-42
2022/08/05 00:52:09;;;;;;;;;;;;;;;28.20;57.31;100725.81;5072700;28;1330;-42
2022/08/05 00:54:37;;;;;;;;;;;;;;;28.05;57.37;100728.13;5072883;28;1084;-41
2022/08/05 00:57:04;;;;;;;;;;;;;;;28.08;57.44;100729.66;5072443;28;1334;-42
2022/08/05 00:59:30;;;;;;;;;;;;;;;27.94;58.79;100724.75;5072784;28;1057;-41
2022/08/05 01:02:09;;;;;;;;;;;;;;;28.17;57.83;100715.38;5072359;28;1312;-42
2022/08/05 01:04:36;;;;;;;;;;;;;;;28.05;58.62;100713.91;5071948;28;1127;-43
2022/08/05 01:07:07;;;;;;;;;;;;;;;28.18;58.21;100717.06;5070624;28;1335;-39
2022/08/05 01:09:40;;;;;;;;;;;;;;;27.94;58.12;100720.25;5070744;28;1981;-40
2022/08/05 01:12:10;;;;;;;;;;;;;;;28.13;56.50;100716.66;5069740;28;1314;-43
2022/08/05 01:14:49;;;;;;;;;;;;;;;28.03;55.69;100719.34;5071280;28;1183;-41
2022/08/05 01:17:28;;;;;;;;;;;;;;;27.91;53.32;100715.19;5070980;28;1215;-43
2022/08/05 01:20:04;;;;;;;;;;;;;;;28.06;53.82;100723.59;5071040;28;1188;-42
2022/08/05 01:22:43;;;;;;;;;;;;;;;27.84;53.32;100727.50;5070958;28;1184;-40
2022/08/05 01:25:31;;;;;;;;;;;;;;;28.02;52.97;100719.53;5071588;28;1248;-42
2022/08/05 01:28:06;;;;;;;;;;;;;;;27.74;53.43;100724.00;5070800;28;1906;-42
2022/08/05 01:30:36;;;;;;;;;;;;;;;27.99;52.97;100723.34;5069915;28;1124;-41
2022/08/05 01:33:06;;;;;;;;;;;;;;;27.89;54.00;100721.69;5070994;28;1225;-41
2022/08/05 01:35:36;;;;;;;;;;;;;;;27.68;55.66;100727.25;5072976;28;1106;-41
2022/08/05 01:38:19;;;;;;;;;;;;;;;27.64;55.08;100726.69;5071952;28;1276;-41
2022/08/05 01:40:57;;;;;;;;;;;;;;;27.77;55.62;100725.53;5073044;28;1064;-42
2022/08/05 01:43:25;;;;;;;;;;;;;;;27.80;55.28;100719.88;5072517;28;1287;-41
2022/08/05 01:45:54;;;;;;;;;;;;;;;27.81;54.55;100724.25;5072746;28;1103;-43
2022/08/05 01:48:23;;;;;;;;;;;;;;;27.73;54.07;100716.09;5072073;28;1985;-42
2022/08/05 01:50:51;;;;;;;;;;;;;;;27.88;53.28;100715.47;5072623;28;881;-41
2022/08/05 01:53:21;;;;;;;;;;;;;;;27.92;53.47;100713.34;5072548;28;1212;-43
2022/08/05 01:56:08;;;;;;;;;;;;;;;27.85;54.79;100713.09;5072431;28;2354;-43
2022/08/05 01:58:35;;;;;;;;;;;;;;;27.88;54.70;100715.47;5072516;28;1201;-45
2022/08/05 02:01:12;;;;;;;;;;;;;;;27.69;55.48;100712.91;5072624;28;988;-42
2022/08/05 02:03:42;;;;;;;;;;;;;;;27.72;57.24;100714.44;5072606;28;1193;-41
2022/08/05 02:06:09;;;;;;;;;;;;;;;27.77;57.44;100712.16;5072289;28;608;-41
2022/08/05 02:08:56;;;;;;;;;;;;;;;27.75;58.00;100716.81;5071629;28;1906;-42
2022/08/05 02:11:25;;;;;;;;;;;;;;;27.77;59.04;100720.19;5072492;28;1144;-41
2022/08/05 02:13:58;;;;;;;;;;;;;;;27.95;58.83;100721.94;5072172;28;1359;-40
2022/08/05 02:16:47;;;;;;;;;;;;;;;27.75;59.81;100730.19;5072266;28;707;-41
2022/08/05 02:19:27;;;;;;;;;;;;;;;27.71;60.25;100726.13;5072520;28;1049;-42
2022/08/05 02:22:02;;;;;;;;;;;;;;;27.75;59.97;100728.38;5072376;28;1272;-42
2022/08/05 02:24:36;;;;;;;;;;;;;;;27.88;58.82;100730.69;5072637;28;1137;-41
2022/08/05 02:27:04;;;;;;;;;;;;;;;27.76;58.51;100730.03;5072438;28;1367;-42
2022/08/05 02:29:36;;;;;;;;;;;;;;;27.77;59.11;100738.91;5072663;28;1910;-43
2022/08/05 02:32:24;;;;;;;;;;;;;;;27.67;58.40;100738.94;5072013;28;2140;-41
2022/08/05 02:35:02;;;;;;;;;;;;;;;27.58;58.40;100734.44;5072011;28;1325;-41
2022/08/05 02:37:40;;;;;;;;;;;;;;;27.75;58.86;100730.19;5072259;28;1277;-42
2022/08/05 02:40:08;;;;;;;;;;;;;;;27.58;59.12;100721.94;5072466;28;1159;-43
2022/08/05 02:42:36;;;;;;;;;;;;;;;27.50;59.77;100731.66;5072169;28;1204;-43
2022/08/05 02:45:03;;;;;;;;;;;;;;;27.54;59.77;100728.53;5072412;28;1210;-41
2022/08/05 02:47:34;;;;;;;;;;;;;;;27.64;60.59;100724.03;5060207;28;1512;-42
2022/08/05 02:50:22;;;;;;;;;;;;;;;27.56;61.31;100725.75;5053998;28;2131;-41
2022/08/05 02:52:49;;;;;;;;;;;;;;;27.57;61.35;100725.59;5055790;28;1296;-41
2022/08/05 02:55:16;;;;;;;;;;;;;;;27.53;61.39;100720.69;5056057;28;1162;-40
2022/08/05 02:58:03;;;;;;;;;;;;;;;27.53;61.50;100726.03;5055973;28;2002;-43
2022/08/05 03:00:45;;;;;;;;;;;;;;;27.16;56.82;100728.59;5055749;28;1017;-42
2022/08/05 03:03:15;;;;;;;;;;;;;;;27.10;55.23;100718.47;5055491;28;1189;-42
2022/08/05 03:05:44;;;;;;;;;;;;;;;27.00;54.49;100725.63;5055696;28;1053;-43
2022/08/05 03:08:31;;;;;;;;;;;;;;;27.00;53.90;100720.28;5055391;28;2780;-43
2022/08/05 03:10:58;;;;;;;;;;;;;;;27.02;53.83;100727.16;5055217;28;789;-42
2022/08/05 03:13:45;;;;;;;;;;;;;;;27.11;53.76;100725.50;5055205;28;2271;-41
2022/08/05 03:16:28;;;;;;;;;;;;;;;27.11;54.64;100722.84;5067494;28;1081;-40
2022/08/05 03:18:56;;;;;;;;;;;;;;;26.98;55.82;100727.63;5074712;28;1158;-42
2022/08/05 03:21:23;;;;;;;;;;;;;;;26.82;57.03;100732.66;5075414;28;1079;-43
2022/08/05 03:23:59;;;;;;;;;;;;;;;26.73;57.78;100730.78;5075166;28;1390;-41
2022/08/05 03:26:27;;;;;;;;;;;;;;;26.65;58.54;100739.53;5074785;28;760;-41
2022/08/05 03:28:57;;;;;;;;;;;;;;;26.74;58.36;100737.84;5075244;28;1999;-41
2022/08/05 03:31:25;;;;;;;;;;;;;;;26.75;58.45;100740.34;5073552;28;1184;-40
2022/08/05 03:34:11;;;;;;;;;;;;;;;26.71;58.41;100738.97;5072943;28;2275;-42
2022/08/05 03:36:39;;;;;;;;;;;;;;;26.86;57.75;100747.44;5072957;28;1315;-42
2022/08/05 03:39:06;;;;;;;;;;;;;;;26.77;57.50;100742.91;5073704;28;1064;-43
2022/08/05 03:41:38;;;;;;;;;;;;;;;26.87;56.95;100743.78;5073347;28;1397;-41
2022/08/05 03:44:12;;;;;;;;;;;;;;;26.66;57.84;100743.03;5072461;28;1043;-41
2022/08/05 03:46:45;;;;;;;;;;;;;;;26.63;58.57;100756.69;5072864;28;1261;-42
2022/08/05 03:49:14;;;;;;;;;;;;;;;26.52;59.72;100754.94;5072548;28;1910;-43
2022/08/05 03:52:01;;;;;;;;;;;;;;;26.42;60.35;100759.41;5072755;28;1209;-41
2022/08/05 03:54:50;;;;;;;;;;;;;;;26.38;62.57;100758.03;5073184;28;2060;-41
2022/08/05 03:57:38;;;;;;;;;;;;;;;26.34;62.89;100756.59;5072847;28;2185;-43
2022/08/05 04:00:09;;;;;;;;;;;;;;;26.36;63.40;100754.63;5072109;28;1582;-40
2022/08/05 04:02:37;;;;;;;;;;;;;;;26.34;63.89;100759.25;5073538;28;1272;-43
2022/08/05 04:05:24;;;;;;;;;;;;;;;26.34;64.00;100757.44;5074867;28;1104;-43
2022/08/05 04:07:53;;;;;;;;;;;;;;;26.32;64.38;100769.25;5074230;28;1217;-44
2022/08/05 04:10:25;;;;;;;;;;;;;;;26.34;63.93;100765.44;5074398;28;1910;-43
2022/08/05 04:12:54;;;;;;;;;;;;;;;26.26;63.82;100764.44;5074159;28;1245;-42
2022/08/05 04:15:24;;;;;;;;;;;;;;;26.23;63.36;100768.25;5074287;28;1079;-43
2022/08/05 04:17:53;;;;;;;;;;;;;;;26.13;64.20;100767.31;5074139;28;1213;-41
2022/08/05 04:20:22;;;;;;;;;;;;;;;26.17;64.32;100776.78;5074258;28;921;-43
2022/08/05 04:22:49;;;;;;;;;;;;;;;26.19;64.38;100763.28;5074405;28;1181;-44
2022/08/05 04:25:16;;;;;;;;;;;;;;;26.25;64.18;100768.09;5074310;28;1285;-42
2022/08/05 04:27:43;;;;;;;;;;;;;;;26.38;63.28;100763.38;5060424;28;1364;-43
2022/08/05 04:30:23;;;;;;;;;;;;;;;26.30;63.43;100766.69;5052686;28;1973;-42
2022/08/05 04:32:52;;;;;;;;;;;;;;;26.23;64.10;100765.56;5053211;28;1279;-44
2022/08/05 04:35:18;;;;;;;;;;;;;;;26.26;64.34;100775.97;5054222;28;1891;-43
2022/08/05 04:37:45;;;;;;;;;;;;;;;26.37;64.25;100767.00;5053725;28;1284;-43
2022/08/05 04:40:28;;;;;;;;;;;;;;;26.22;65.25;100769.22;5053761;28;1129;-43
2022/08/05 04:42:55;;;;;;;;;;;;;;;26.23;65.09;100770.91;5053843;28;1260;-42
2022/08/05 04:45:24;;;;;;;;;;;;;;;26.28;65.00;100773.16;5053523;28;1051;-43
2022/08/05 04:48:14;;;;;;;;;;;;;;;26.19;66.38;100780.16;5066098;28;2322;-43
2022/08/05 04:50:52;;;;;;;;;;;;;;;26.25;66.24;100779.63;5073166;28;640;-44
2022/08/05 04:53:29;;;;;;;;;;;;;;;26.32;66.15;100786.13;5073386;28;1375;-42
2022/08/05 04:56:00;;;;;;;;;;;;;;;26.28;66.78;100782.03;5073470;28;1028;-43
2022/08/05 04:58:47;;;;;;;;;;;;;;;26.20;67.26;100794.34;5073374;28;2333;-42
2022/08/05 05:01:14;;;;;;;;;;;;;;;26.25;66.83;100784.09;5072907;28;1156;-41
2022/08/05 05:03:59;;;;;;;;;;;;;;;26.32;66.34;100798.63;5071148;28;1401;-43
2022/08/05 05:06:27;;;;;;;;;;;;;;;26.29;66.22;100797.06;5060822;28;1306;-42
2022/08/05 05:09:11;;;;;;;;;;;;;;;26.06;66.48;100795.50;5072111;28;1985;-43
2022/08/05 05:11:42;;;;;;;;;;;;;;;26.08;66.48;100806.94;5061302;28;1390;-44
2022/08/05 05:14:22;;;;;;;;;;;;;;;25.98;65.46;100806.00;5070560;28;1219;-43
2022/08/05 05:16:57;;;;;;;;;;;;;;;26.05;65.31;100807.19;5069950;28;1326;-43
2022/08/05 05:19:24;;;;;;;;;;;;;;;26.07;64.99;100798.06;5072202;28;1262;-43
2022/08/05 05:21:52;;;;;;;;;;;;;;;26.24;64.97;100801.94;5060925;28;1342;-42
2022/08/05 05:24:21;;;;;;;;;;;;;;;26.18;65.35;100807.81;5071833;28;1246;-42
2022/08/05 05:27:07;;;;;;;;;;;;;;;26.13;66.29;100812.69;5071216;28;2330;-43
2022/08/05 05:29:35;;;;;;;;;;;;;;;26.30;65.86;100808.56;5062361;28;1979;-43
2022/08/05 05:32:22;;;;;;;;;;;;;;;26.33;66.33;100808.31;5069070;28;2970;-41
2022/08/05 05:34:48;;;;;;;;;;;;;;;26.37;65.41;100818.59;5071258;28;1571;-41
2022/08/05 05:37:17;;;;;;;;;;;;;;;26.33;65.00;100818.97;5071736;28;1285;-43
2022/08/05 05:39:44;;;;;;;;;;;;;;;26.31;64.92;100816.47;5061095;28;1348;-40
2022/08/05 05:42:11;;;;;;;;;;;;;;;26.21;63.51;100820.91;5062584;28;1327;-41
2022/08/05 05:44:38;;;;;;;;;;;;;;;26.39;62.63;100818.44;5061417;28;1269;-41
2022/08/05 05:47:11;;;;;;;;;;;;;;;26.18;61.51;100831.84;5069018;28;1307;-41
2022/08/05 05:49:47;;;;;;;;;;;;;;;26.18;61.04;100837.19;5071795;28;1986;-42
2022/08/05 05:52:23;;;;;;;;;;;;;;;26.12;60.24;100835.03;5071582;28;1461;-42
2022/08/05 05:54:59;;;;;;;;;;;;;;;26.09;59.83;100824.59;5069810;28;1298;-43
2022/08/05 05:57:27;;;;;;;;;;;;;;;26.26;59.34;100831.19;5070556;28;1296;-43
2022/08/05 06:00:17;;;;;;;;;;;;;;;26.29;59.72;100831.78;5069553;28;2387;-42
2022/08/05 06:02:46;;;;;;;;;;;;;;;26.67;58.99;100828.38;5071741;28;1422;-43
2022/08/05 06:05:13;;;;;;;;;;;;;;;26.42;59.60;100835.03;5060792;28;1199;-43
2022/08/05 06:07:43;;;;;;;;;;;;;;;26.54;60.15;100833.13;5071576;28;1320;-42
2022/08/05 06:10:27;;;;;;;;;;;;;;;26.61;60.54;100832.44;5072198;28;1914;-42
2022/08/05 06:12:59;;;;;;;;;;;;;;;26.49;61.41;100828.19;5072368;28;1382;-42
2022/08/05 06:15:26;;;;;;;;;;;;;;;26.42;62.14;100824.38;5071292;28;1796;-44
2022/08/05 06:18:13;;;;;;;;;;;;;;;26.85;61.46;100826.78;5072657;28;2344;-42
2022/08/05 06:20:40;;;;;;;;;;;;;;;27.34;59.82;100823.16;5072342;28;1108;-42
2022/08/05 06:23:13;;;;;;;;;;;;;;;26.71;61.82;100835.16;5072249;28;1496;-43
2022/08/05 06:25:40;;;;;;;;;;;;;;;27.19;60.52;100824.56;5075241;28;1057;-44
2022/08/05 06:28:26;;;;;;;;;;;;;;;27.23;60.19;100820.63;5076509;28;2161;-42
2022/08/05 06:30:53;;;;;;;;;;;;;;;27.31;59.80;100830.63;5076513;28;1974;-41
2022/08/05 06:33:21;;;;;;;;;;;;;;;27.48;59.48;100830.78;5076286;28;1677;-42
2022/08/05 06:36:08;;;;;;;;;;;;;;;27.87;58.16;100828.06;5076193;28;2187;-42
2022/08/05 06:38:35;;;;;;;;;;;;;;;27.18;60.08;100828.22;5076039;28;1228;-44
2022/08/05 06:41:03;;;;;;;;;;;;;;;27.44;60.38;100833.91;5076061;28;1175;-44
2022/08/05 06:43:29;;;;;;;;;;;;;;;28.06;57.97;100831.56;5076182;28;1294;-41
2022/08/05 06:46:16;;;;;;;;;;;;;;;27.97;58.61;100832.41;5076000;28;2011;-42
2022/08/05 06:48:44;;;;;;;;;;;;;;;26.93;63.63;100840.28;5075587;28;1664;-43
2022/08/05 06:51:24;;;;;;;;;;;;;;;27.13;62.55;100846.53;5074819;28;1116;-43
2022/08/05 06:53:59;;;;;;;;;;;;;;;28.00;59.50;100836.59;5076168;28;1457;-44
2022/08/05 06:56:28;;;;;;;;;;;;;;;28.34;58.79;100845.00;5075543;28;1049;-43
2022/08/05 06:58:55;;;;;;;;;;;;;;;27.65;60.89;100842.63;5075727;28;1204;-42
2022/08/05 07:01:22;;;;;;;;;;;;;;;27.67;60.49;100836.13;5075105;28;1125;-42
2022/08/05 07:03:57;;;;;;;;;;;;;;;27.56;61.64;100844.31;5074908;28;1402;-44
2022/08/05 07:06:24;;;;;;;;;;;;;;;28.03;60.39;100833.63;5074801;28;1166;-44
2022/08/05 07:08:53;;;;;;;;;;;;;;;27.71;61.41;100841.19;5075181;28;1902;-42
2022/08/05 07:11:20;;;;;;;;;;;;;;;27.80;61.78;100854.56;5075226;28;1078;-44
2022/08/05 07:16:59;;;;;;;;;;;;;;;27.99;61.58;100846.50;5075352;28;1379;-43
2022/08/05 07:19:46;;;;;;;;;;;;;;;28.86;58.43;100856.91;5075940;28;2254;-42
2022/08/05 07:22:33;;;;;;;;;;;;;;;28.40;60.08;100855.13;5075234;28;3122;-42
2022/08/05 07:25:00;;;;;;;;;;;;;;;28.33;60.48;100854.84;5075544;28;1662;-42
2022/08/05 07:27:48;;;;;;;;;;;;;;;28.49;59.60;100855.09;5075127;28;2135;-41
2022/08/05 07:30:32;;;;;;;;;;;;;;;28.45;59.07;100851.03;5074986;28;1909;-43
2022/08/05 07:33:05;;;;;;;;;;;;;;;28.36;59.09;100849.19;5075204;28;1385;-42
2022/08/05 07:35:39;;;;;;;;;;;;;;;28.30;59.23;100849.78;5074623;28;1017;-42
2022/08/05 07:38:26;;;;;;;;;;;;;;;28.40;58.74;100850.59;5075050;28;2299;-42
2022/08/05 07:41:02;;;;;;;;;;;;;;;28.54;58.49;100844.78;5074684;28;1132;-43
2022/08/05 07:43:49;;;;;;;;;;;;;;;28.36;59.33;100845.72;5074683;28;2201;-41
2022/08/05 07:46:15;;;;;;;;;;;;;;;28.45;59.13;100855.53;5074469;28;985;-40
2022/08/05 07:48:51;;;;;;;;;;;;;;;28.52;58.82;100859.28;5074431;28;1429;-41
2022/08/05 07:51:34;;;;;;;;;;;;;;;28.67;58.66;100857.84;5074277;28;1010;-43
2022/08/05 07:54:14;;;;;;;;;;;;;;;28.68;58.17;100860.38;5074553;28;1120;-43
2022/08/05 07:56:41;;;;;;;;;;;;;;;28.59;58.32;100850.53;5074167;28;1317;-41
2022/08/05 07:59:27;;;;;;;;;;;;;;;28.69;58.14;100856.72;5074518;28;2146;-42
2022/08/05 08:02:06;;;;;;;;;;;;;;;28.77;57.89;100852.44;5067729;28;1457;-40
2022/08/05 08:04:46;;;;;;;;;;;;;;;29.06;56.83;100853.13;5064420;28;1110;-42
2022/08/05 08:07:14;;;;;;;;;;;;;;;28.94;56.24;100852.47;5073323;28;1252;-42
2022/08/05 08:09:43;;;;;;;;;;;;;;;28.96;56.43;100860.38;5072434;28;1979;-43
2022/08/05 08:12:10;;;;;;;;;;;;;;;29.14;55.54;100851.34;5073107;28;1559;-43
2022/08/05 08:14:56;;;;;;;;;;;;;;;29.11;55.57;100858.84;5074238;28;1108;-41
2022/08/05 08:17:28;;;;;;;;;;;;;;;29.32;54.68;100859.44;5073429;28;1780;-41
2022/08/05 08:19:55;;;;;;;;;;;;;;;29.02;56.00;100851.72;5068884;28;1414;-41
2022/08/05 08:22:42;;;;;;;;;;;;;;;29.04;56.02;100865.81;5069861;28;2305;-42
2022/08/05 08:25:09;;;;;;;;;;;;;;;29.06;55.48;100851.25;5073655;28;1188;-40
2022/08/05 08:27:43;;;;;;;;;;;;;;;29.06;55.85;100859.28;5069900;28;1414;-43
2022/08/05 08:30:16;;;;;;;;;;;;;;;29.13;55.52;100854.19;5073383;28;1987;-41
2022/08/05 08:32:59;;;;;;;;;;;;;;;29.17;55.56;100858.25;5073486;28;1302;-40
2022/08/05 08:35:33;;;;;;;;;;;;;;;29.19;55.54;100856.25;5073349;28;1048;-43
2022/08/05 08:38:08;;;;;;;;;;;;;;;29.49;53.55;100853.22;5072923;28;1287;-41
2022/08/05 08:40:42;;;;;;;;;;;;;;;29.26;54.95;100849.31;5072562;28;1118;-42
2022/08/05 08:43:18;;;;;;;;;;;;;;;29.37;55.34;100846.41;5073100;28;1386;-41
2022/08/05 08:46:05;;;;;;;;;;;;;;;29.40;54.97;100859.50;5058405;28;2997;-42
2022/08/05 08:48:35;;;;;;;;;;;;;;;29.54;54.00;100850.09;5055643;28;1413;-39
2022/08/05 08:51:23;;;;;;;;;;;;;;;29.56;52.92;100859.66;5072544;28;2446;-41
2022/08/05 08:54:10;;;;;;;;;;;;;;;29.52;54.59;100860.94;5073012;28;1925;-39
2022/08/05 08:56:39;;;;;;;;;;;;;;;29.66;54.52;100852.38;5073257;28;1303;-41
2022/08/05 08:59:17;;;;;;;;;;;;;;;29.56;54.96;100845.38;5071885;28;1091;-41
2022/08/05 09:01:46;;;;;;;;;;;;;;;29.61;54.93;100843.91;5072795;28;1398;-42
2022/08/05 09:04:23;;;;;;;;;;;;;;;29.65;55.03;100850.69;5071573;28;1153;-41
2022/08/05 09:06:56;;;;;;;;;;;;;;;29.68;55.43;100844.16;5066502;28;1411;-44
2022/08/05 09:09:24;;;;;;;;;;;;;;;29.77;55.64;100841.38;5072307;28;1913;-42
2022/08/05 09:12:00;;;;;;;;;;;;;;;29.96;54.80;100845.72;5071992;28;1406;-43
2022/08/05 09:14:47;;;;;;;;;;;;;;;30.10;53.93;100850.50;5064237;28;1104;-43
2022/08/05 09:17:23;;;;;;;;;;;;;;;30.10;54.42;100847.81;5070091;28;1237;-43
2022/08/05 09:20:09;;;;;;;;;;;;;;;30.15;53.94;100845.53;5072582;28;1132;-41
2022/08/05 09:22:54;;;;;;;;;;;;;;;30.11;54.13;100843.31;5072061;28;1224;-42
2022/08/05 09:25:30;;;;;;;;;;;;;;;30.07;54.20;100842.78;5072563;28;1032;-41
2022/08/05 09:28:19;;;;;;;;;;;;;;;30.21;53.59;100847.56;5072483;28;2257;-40
2022/08/05 09:30:54;;;;;;;;;;;;;;;30.21;54.33;100839.53;5071871;28;1999;-40
2022/08/05 09:33:22;;;;;;;;;;;;;;;30.20;54.05;100842.34;5072403;28;1417;-41
2022/08/05 09:36:02;;;;;;;;;;;;;;;30.08;54.58;100847.16;5065693;28;1144;-41
2022/08/05 09:38:58;;;;;;;;;;;;;;;30.01;54.99;100835.34;5071593;28;1361;-41
2022/08/05 09:41:25;;;;;;;;;;;;;;;30.14;55.07;100838.47;5054156;28;1178;-40
2022/08/05 09:43:58;;;;;;;;;;;;;;;29.97;55.68;100841.22;5056966;28;1326;-43
2022/08/05 09:46:26;;;;;;;;;;;;;;;30.21;55.28;100841.34;5072278;28;1095;-41
2022/08/05 09:48:55;;;;;;;;;;;;;;;30.08;55.66;100840.94;5071742;28;1153;-42
2022/08/05 09:51:41;;;;;;;;;;;;;;;30.09;55.95;100842.63;5071189;28;2021;-43
2022/08/05 09:54:10;;;;;;;;;;;;;;;30.07;55.91;100841.94;5072144;28;1076;-39
2022/08/05 09:56:44;;;;;;;;;;;;;;;30.23;54.79;100844.72;5072580;28;1185;-43
2022/08/05 09:59:22;;;;;;;;;;;;;;;30.19;54.98;100827.22;5071710;28;1143;-42
2022/08/05 10:01:53;;;;;;;;;;;;;;;30.24;54.79;100836.50;5072148;28;1593;-39
2022/08/05 10:04:33;;;;;;;;;;;;;;;30.61;53.81;100841.56;5072104;28;1057;-36
2022/08/05 10:07:00;;;;;;;;;;;;;;;30.48;54.55;100833.13;5072028;28;1742;-37
2022/08/05 10:09:54;;;;;;;;;;;;;;;30.59;54.13;100829.28;5071335;28;1906;-42
2022/08/05 10:12:44;;;;;;;;;;;;;;;30.77;53.77;100830.88;5072368;28;1216;-42
2022/08/05 10:15:16;;;;;;;;;;;;;;;30.49;54.68;100828.59;5070794;28;1391;-42
2022/08/05 10:18:06;;;;;;;;;;;;;;;30.58;54.77;100824.94;5072296;28;1256;-42
2022/08/05 10:20:34;;;;;;;;;;;;;;;30.63;55.37;100823.44;5069870;28;1274;-42
2022/08/05 10:23:01;;;;;;;;;;;;;;;30.58;55.41;100831.13;5072006;28;1204;-41
2022/08/05 10:25:28;;;;;;;;;;;;;;;30.77;54.79;100830.88;5071850;28;1105;-38
2022/08/05 10:27:57;;;;;;;;;;;;;;;30.63;55.14;100834.19;5068700;28;1224;-42
2022/08/05 10:30:44;;;;;;;;;;;;;;;30.56;55.26;100830.47;5067315;28;2106;-42
2022/08/05 10:33:31;;;;;;;;;;;;;;;30.56;55.70;100827.78;5069232;28;2103;-43
2022/08/05 10:36:04;;;;;;;;;;;;;;;30.80;55.18;100827.84;5069343;28;1013;-41
2022/08/05 10:38:32;;;;;;;;;;;;;;;30.68;55.71;100829.16;5069649;28;1275;-41
2022/08/05 10:41:18;;;;;;;;;;;;;;;30.71;55.47;100831.53;5068203;28;703;-42
2022/08/05 10:43:53;;;;;;;;;;;;;;;30.60;56.36;100836.34;5069604;28;1433;-40
2022/08/05 10:46:21;;;;;;;;;;;;;;;30.81;55.36;100832.22;5069433;28;1042;-41
2022/08/05 10:48:54;;;;;;;;;;;;;;;30.55;56.15;100831.44;5068941;28;1506;-42
2022/08/05 10:51:40;;;;;;;;;;;;;;;30.48;56.36;100827.75;5069612;28;1975;-41
2022/08/05 10:55:04;;;;;;;;;;;;;;;30.67;56.08;100826.66;5068718;28;1079;-41
2022/08/05 10:57:31;;;;;;;;;;;;;;;30.73;55.59;100821.44;5048720;28;1311;-41
2022/08/05 11:00:20;;;;;;;;;;;;;;;30.77;55.64;100816.56;5034432;28;1318;-41
2022/08/05 11:03:08;;;;;;;;;;;;;;;30.80;55.71;100825.16;5055970;28;1189;-41
2022/08/05 11:06:08;;;;;;;;;;;;;;;30.83;55.90;100816.78;5071701;28;1217;-42
2022/08/05 11:09:08;;;;;;;;;;;;;;;30.84;55.85;100823.00;5071434;28;1376;-42
2022/08/05 11:11:39;;;;;;;;;;;;;;;30.85;55.66;100824.69;5063689;28;1918;-41
2022/08/05 11:14:28;;;;;;;;;;;;;;;30.95;54.82;100822.69;5074716;28;1083;-44
2022/08/05 11:17:28;;;;;;;;;;;;;;;32.00;52.42;100820.06;5071185;28;2229;-40
2022/08/05 11:20:31;;;;;;;;;;;;;;;31.93;53.16;100822.59;5063163;28;1372;-42
2022/08/05 11:22:58;;;;;;;;;;;;;;;31.97;53.66;100820.41;5072285;28;1298;-41
2022/08/05 11:25:43;;;;;;;;;;;;;;;31.93;53.11;100816.34;5071913;28;877;-41
2022/08/05 11:28:32;;;;;;;;;;;;;;;31.53;55.08;100814.53;5070345;28;2256;-41
2022/08/05 11:31:01;;;;;;;;;;;;;;;32.06;53.54;100816.69;5069149;28;1981;-40
2022/08/05 11:33:34;;;;;;;;;;;;;;;32.10;53.02;100814.50;5071921;28;1411;-39
2022/08/05 11:36:18;;;;;;;;;;;;;;;32.16;52.99;100813.81;5073141;28;1028;-39
2022/08/05 11:39:05;;;;;;;;;;;;;;;32.04;53.34;100817.91;5072544;28;2260;-40
2022/08/05 11:41:34;;;;;;;;;;;;;;;32.29;51.68;100816.78;5071930;28;863;-40
2022/08/05 11:44:21;;;;;;;;;;;;;;;31.98;53.08;100807.78;5072976;28;2011;-39
2022/08/05 11:47:06;;;;;;;;;;;;;;;32.02;52.78;100809.09;5072210;28;1683;-39
2022/08/05 11:49:41;;;;;;;;;;;;;;;32.09;52.84;100807.44;5071468;28;1250;-42
2022/08/05 11:52:27;;;;;;;;;;;;;;;31.67;53.87;100808.50;5073243;28;1938;-42
2022/08/05 11:54:55;;;;;;;;;;;;;;;31.76;53.68;100812.88;5069399;28;1028;-40
2022/08/05 11:57:26;;;;;;;;;;;;;;;31.91;52.96;100803.06;5073397;28;1373;-39
2022/08/05 11:59:56;;;;;;;;;;;;;;;31.80;53.63;100798.03;5067483;28;1363;-38
2022/08/05 12:02:30;;;;;;;;;;;;;;;32.02;52.82;100809.09;5073202;28;1252;-38
2022/08/05 12:05:00;;;;;;;;;;;;;;;31.93;52.27;100805.56;5073058;28;1103;-37
2022/08/05 12:07:34;;;;;;;;;;;;;;;32.11;51.53;100800.00;5078274;28;1394;-38
2022/08/05 12:10:21;;;;;;;;;;;;;;;32.19;51.59;100806.19;5071188;28;2151;-39
2022/08/05 12:13:09;;;;;;;;;;;;;;;31.57;53.98;100794.38;5072990;28;1308;-38
2022/08/05 12:15:46;;;;;;;;;;;;;;;31.77;53.35;100795.66;5072135;28;1354;-39
2022/08/05 12:18:25;;;;;;;;;;;;;;;31.67;54.29;100794.19;5072551;28;1260;-42
2022/08/05 12:21:08;;;;;;;;;;;;;;;32.05;52.89;100798.84;5074191;28;1713;-39
2022/08/05 12:23:35;;;;;;;;;;;;;;;32.03;52.78;100794.66;5072192;28;1307;-39
2022/08/05 12:26:08;;;;;;;;;;;;;;;31.69;52.96;100781.38;5073183;28;1097;-37
2022/08/05 12:28:36;;;;;;;;;;;;;;;31.84;53.07;100777.81;5073653;28;1265;-38
2022/08/05 12:31:03;;;;;;;;;;;;;;;31.83;54.75;100783.38;5073888;28;1909;-38
2022/08/05 12:33:30;;;;;;;;;;;;;;;31.91;54.72;100789.59;5073145;28;1727;-38
2022/08/05 12:36:02;;;;;;;;;;;;;;;31.70;54.80;100783.94;5078628;28;1061;-38
2022/08/05 12:38:35;;;;;;;;;;;;;;;31.84;52.99;100785.91;5073242;28;1303;-38
2022/08/05 12:41:05;;;;;;;;;;;;;;;31.54;53.53;100785.78;5072146;28;886;-37
2022/08/05 12:43:49;;;;;;;;;;;;;;;31.87;52.23;100776.63;5073104;28;1307;-37
2022/08/05 12:46:22;;;;;;;;;;;;;;;31.66;54.30;100779.88;5072870;28;1061;-37
2022/08/05 12:49:04;;;;;;;;;;;;;;;31.68;54.55;100768.91;5073527;28;1327;-37
2022/08/05 12:51:46;;;;;;;;;;;;;;;31.67;54.69;100776.19;5073196;28;1914;-36
2022/08/05 12:54:34;;;;;;;;;;;;;;;31.56;54.98;100776.53;5073080;28;2211;-39
2022/08/05 12:57:03;;;;;;;;;;;;;;;32.02;53.93;100774.91;5073032;28;1260;-36
2022/08/05 12:59:45;;;;;;;;;;;;;;;31.88;54.12;100770.25;5073187;28;1135;-37
2022/08/05 13:02:34;;;;;;;;;;;;;;;32.10;53.23;100766.81;5072750;28;1404;-39
2022/08/05 13:05:04;;;;;;;;;;;;;;;31.87;53.04;100766.72;5072847;28;1090;-36
2022/08/05 13:07:31;;;;;;;;;;;;;;;31.98;51.48;100770.88;5072752;28;1312;-37
2022/08/05 13:10:18;;;;;;;;;;;;;;;31.92;51.23;100766.16;5073080;28;2185;-35
2022/08/05 13:12:45;;;;;;;;;;;;;;;31.95;48.52;100758.59;5072965;28;1910;-36
2022/08/05 13:15:30;;;;;;;;;;;;;;;32.13;47.65;100762.97;5072192;28;1058;-36
2022/08/05 13:18:16;;;;;;;;;;;;;;;31.76;48.43;100767.09;5072565;28;1240;-37
2022/08/05 13:20:45;;;;;;;;;;;;;;;32.02;47.60;100764.13;5072687;28;1129;-36
2022/08/05 13:23:12;;;;;;;;;;;;;;;31.77;49.14;100766.03;5072263;28;1201;-35
2022/08/05 13:25:41;;;;;;;;;;;;;;;31.90;49.21;100766.38;5065536;28;786;-39
2022/08/05 13:28:25;;;;;;;;;;;;;;;32.08;49.73;100765.31;5072312;28;1740;-39
2022/08/05 13:30:52;;;;;;;;;;;;;;;31.90;49.98;100760.13;5071419;28;1906;-37
2022/08/05 13:33:19;;;;;;;;;;;;;;;31.77;49.78;100765.19;5072100;28;1552;-37